Port Huron, MI

11:05 AM EDT on October 19, 2017 (GMT -0400)
Saint Clair County International

Weather History for KPHN - December, 2012

Change the Weather History Date:

Tuesday, December 25, 2012

  Actual Average (KMTC) Record (KMTC)
Temperature  
Mean Temperature 28 °F -  
Max Temperature 32 °F 30 °F 61 °F (1982)
Min Temperature 24 °F 17 °F -2 °F (1983)
Degree Days  
Heating Degree Days 37    
Moisture  
Dew Point 26 °F    
Average Humidity 86    
Maximum Humidity 100    
Minimum Humidity 75    
Precipitation  
Precipitation 0.00 in - - ()
Sea Level Pressure  
Sea Level Pressure 30.20 in    
Wind  
Wind Speed 5 mph (NW)    
Max Wind Speed 12 mph    
Max Gust Speed 17 mph    
Visibility 10 miles    
Events Snow    
Averages and records for this station are not official NWS values.
T = Trace of Precipitation, MM = Missing Value Source: NWS Daily Summary

Daily Weather History Graph

Daily Weather History Graph

Search for Another Location

Airport or City:

Trip Planner

Search our weather history database for the weather conditions in past years. The results will help you decide how hot, cold, wet, or windy it might be!

Date:

Astronomy

Dec. 25, 2012 Rise Set
Actual Time 7:59 AM EST 5:01 PM EST
Civil Twilight 7:27 AM EST 5:33 PM EST
Nautical Twilight 6:51 AM EST 6:09 PM EST
Astronomical Twilight 6:17 AM EST 6:43 PM EST
Moon 3:09 PM EST (12/25) 5:29 AM EST (12/25)
Length of Visible Light 10h 06m
Length of Day
9h 01m
Waxing Gibbous, 93% of the Moon is Illuminated
Dec 25
Waxing Gibbous
Dec 28
Full
Jan 4
Last Quarter
Jan 11
New
Jan 18
First Quarter

Hourly Weather History & Observations

Time (EST) Temp. Windchill Dew Point Humidity Pressure Visibility Wind Dir Wind Speed Gust Speed Precip Events Conditions
12:17 AM 26.6 °F 21.2 °F 24.8 °F 93% 29.97 in 10.0 mi NW 4.6 mph - N/A   Clear
12:37 AM 26.6 °F 21.2 °F 24.8 °F 93% 29.97 in 10.0 mi WNW 4.6 mph - N/A   Clear
12:57 AM 26.6 °F 21.2 °F 24.8 °F 93% 29.98 in 10.0 mi WNW 4.6 mph - N/A   Clear
1:17 AM 24.8 °F 20.5 °F 24.8 °F 100% 29.99 in 10.0 mi WNW 3.5 mph - N/A   Mostly Cloudy
1:37 AM 24.8 °F 19.1 °F 24.8 °F 100% 29.99 in 10.0 mi WNW 4.6 mph - N/A   Mostly Cloudy
1:57 AM 26.6 °F 22.6 °F 24.8 °F 93% 30.01 in 10.0 mi West 3.5 mph - N/A   Mostly Cloudy
2:17 AM 24.8 °F 19.1 °F 23.0 °F 93% 30.01 in 10.0 mi WNW 4.6 mph - N/A   Mostly Cloudy
2:37 AM 24.8 °F 19.1 °F 23.0 °F 93% 30.02 in 10.0 mi WNW 4.6 mph - N/A   Scattered Clouds
2:57 AM 24.8 °F 16.1 °F 24.8 °F 100% 30.03 in 10.0 mi NW 8.1 mph - N/A   Mostly Cloudy
3:17 AM 26.6 °F 19.1 °F 24.8 °F 93% 30.04 in 2.5 mi WNW 6.9 mph - N/A   Overcast
3:37 AM 26.6 °F 19.1 °F 26.6 °F 100% 30.05 in 4.0 mi NW 6.9 mph - N/A   Overcast
3:57 AM 26.6 °F 19.1 °F 26.6 °F 100% 30.06 in 7.0 mi WNW 6.9 mph - N/A   Overcast
4:17 AM 28.4 °F 23.3 °F 26.6 °F 93% 30.07 in 10.0 mi West 4.6 mph - N/A   Overcast
4:37 AM 28.4 °F 24.6 °F 26.6 °F 93% 30.08 in 10.0 mi WNW 3.5 mph - N/A   Overcast
4:57 AM 26.6 °F 21.2 °F 26.6 °F 100% 30.08 in 10.0 mi WNW 4.6 mph - N/A   Mostly Cloudy
5:17 AM 26.6 °F 21.2 °F 26.6 °F 100% 30.09 in 10.0 mi WNW 4.6 mph - N/A   Mostly Cloudy
5:37 AM 26.6 °F 21.2 °F 26.6 °F 100% 30.10 in 10.0 mi WNW 4.6 mph - N/A   Mostly Cloudy
5:57 AM 28.4 °F 22.2 °F 26.6 °F 93% 30.12 in 10.0 mi WNW 5.8 mph - N/A   Overcast
6:17 AM 30.2 °F 23.4 °F 28.4 °F 93% 30.13 in 10.0 mi NW 6.9 mph - N/A   Overcast
6:37 AM 30.2 °F 25.4 °F 28.4 °F 93% 30.14 in 10.0 mi NW 4.6 mph - N/A   Overcast
6:57 AM 30.2 °F 24.3 °F 28.4 °F 93% 30.15 in 10.0 mi NNW 5.8 mph - N/A   Overcast
7:17 AM 30.2 °F 24.3 °F 28.4 °F 93% 30.16 in 10.0 mi NNW 5.8 mph - N/A   Overcast
7:37 AM 30.2 °F 24.3 °F 28.4 °F 93% 30.17 in 10.0 mi NNW 5.8 mph - N/A   Overcast
7:57 AM 30.2 °F 22.6 °F 28.4 °F 93% 30.18 in 10.0 mi NNW 8.1 mph - N/A   Overcast
8:17 AM 30.2 °F 24.3 °F 28.4 °F 93% 30.18 in 10.0 mi NNW 5.8 mph - N/A   Overcast
8:37 AM 30.2 °F 24.3 °F 28.4 °F 93% 30.19 in 10.0 mi NNW 5.8 mph - N/A   Overcast
8:57 AM 30.2 °F 26.7 °F 28.4 °F 93% 30.19 in 10.0 mi NNW 3.5 mph - N/A   Overcast
9:17 AM 30.2 °F 25.4 °F 28.4 °F 93% 30.20 in 10.0 mi NNW 4.6 mph - N/A   Overcast
9:37 AM 30.2 °F 24.3 °F 28.4 °F 93% 30.21 in 10.0 mi NNW 5.8 mph - N/A   Overcast
9:57 AM 30.2 °F 25.4 °F 26.6 °F 86% 30.22 in 10.0 mi NNW 4.6 mph - N/A   Overcast
10:17 AM 30.2 °F 22.6 °F 26.6 °F 86% 30.22 in 10.0 mi NNW 8.1 mph - N/A   Overcast
10:37 AM 30.2 °F 25.4 °F 26.6 °F 86% 30.23 in 10.0 mi NNW 4.6 mph - N/A   Overcast
10:57 AM 30.2 °F 23.4 °F 26.6 °F 86% 30.24 in 10.0 mi NW 6.9 mph - N/A   Overcast
11:17 AM 32.0 °F 25.6 °F 26.6 °F 80% 30.23 in 10.0 mi North 6.9 mph - N/A   Overcast
11:37 AM 32.0 °F 25.6 °F 24.8 °F 75% 30.23 in 10.0 mi NW 6.9 mph - N/A   Overcast
11:57 AM 32.0 °F 26.4 °F 24.8 °F 75% 30.23 in 10.0 mi NW 5.8 mph - N/A   Overcast
12:17 PM 32.0 °F 24.8 °F 24.8 °F 75% 30.23 in 10.0 mi WNW 8.1 mph - N/A   Overcast
12:37 PM 32.0 °F 26.4 °F 24.8 °F 75% 30.24 in 10.0 mi WNW 5.8 mph - N/A   Overcast
12:57 PM 32.0 °F 26.4 °F 24.8 °F 75% 30.24 in 10.0 mi WNW 5.8 mph - N/A   Overcast
1:17 PM 32.0 °F 27.5 °F 24.8 °F 75% 30.24 in 10.0 mi NW 4.6 mph - N/A   Overcast
1:37 PM 32.0 °F 28.7 °F 24.8 °F 75% 30.24 in 10.0 mi NW 3.5 mph - N/A   Overcast
1:57 PM 32.0 °F 28.7 °F 24.8 °F 75% 30.24 in 10.0 mi NNW 3.5 mph - N/A   Overcast
2:17 PM 32.0 °F 27.5 °F 24.8 °F 75% 30.25 in 10.0 mi WNW 4.6 mph - N/A   Overcast
2:37 PM 32.0 °F 28.7 °F 24.8 °F 75% 30.27 in 10.0 mi West 3.5 mph - N/A   Overcast
2:57 PM 32.0 °F 26.4 °F 24.8 °F 75% 30.27 in 10.0 mi WNW 5.8 mph - N/A   Overcast
3:17 PM 32.0 °F 27.5 °F 24.8 °F 75% 30.27 in 10.0 mi North 4.6 mph - N/A   Overcast
3:37 PM 32.0 °F 27.5 °F 24.8 °F 75% 30.27 in 10.0 mi NNW 4.6 mph - N/A   Overcast
3:57 PM 32.0 °F 27.5 °F 24.8 °F 75% 30.27 in 10.0 mi NNW 4.6 mph - N/A   Overcast
4:17 PM 32.0 °F 25.6 °F 24.8 °F 75% 30.26 in 10.0 mi NW 6.9 mph - N/A   Overcast
4:37 PM 32.0 °F 26.4 °F 24.8 °F 75% 30.27 in 10.0 mi North 5.8 mph - N/A   Overcast
4:57 PM 32.0 °F 27.5 °F 24.8 °F 75% 30.28 in 10.0 mi NW 4.6 mph - N/A   Overcast
5:17 PM 32.0 °F 28.7 °F 24.8 °F 75% 30.28 in 10.0 mi NW 3.5 mph - N/A   Overcast
5:37 PM 32.0 °F - 24.8 °F 75% 30.27 in 10.0 mi Calm Calm - N/A   Overcast
5:57 PM 32.0 °F 28.7 °F 24.8 °F 75% 30.28 in 10.0 mi WNW 3.5 mph - N/A   Overcast
6:17 PM 32.0 °F 28.7 °F 24.8 °F 75% 30.29 in 10.0 mi NW 3.5 mph - N/A   Overcast
6:37 PM 32.0 °F 27.5 °F 24.8 °F 75% 30.30 in 10.0 mi WNW 4.6 mph - N/A   Overcast
6:57 PM 32.0 °F 25.6 °F 24.8 °F 75% 30.29 in 10.0 mi WNW 6.9 mph - N/A   Overcast
7:17 PM 32.0 °F 28.7 °F 26.6 °F 80% 30.30 in 10.0 mi North 3.5 mph - N/A   Overcast
7:37 PM 30.2 °F - 28.4 °F 93% 30.30 in 5.0 mi Calm Calm - N/A Snow Light Snow
7:57 PM 30.2 °F 26.7 °F 28.4 °F 93% 30.30 in 5.0 mi WNW 3.5 mph - N/A   Overcast
8:17 PM 30.2 °F 26.7 °F 28.4 °F 93% 30.31 in 10.0 mi NW 3.5 mph - N/A   Overcast
8:37 PM 30.2 °F - 28.4 °F 93% 30.31 in 7.0 mi Calm Calm - N/A   Overcast
8:57 PM 32.0 °F - 30.2 °F 93% 30.31 in 4.0 mi Calm Calm - N/A   Overcast
9:17 PM 32.0 °F 28.7 °F 30.2 °F 93% 30.31 in 7.0 mi NNE 3.5 mph - N/A   Overcast
9:37 PM 32.0 °F 28.7 °F 30.2 °F 93% 30.30 in 10.0 mi NNE 3.5 mph - N/A   Overcast
9:57 PM 32.0 °F 25.6 °F 30.2 °F 93% 30.29 in 10.0 mi NE 6.9 mph - N/A   Overcast
10:17 PM 32.0 °F 23.0 °F 28.4 °F 87% 30.29 in 10.0 mi NE 11.5 mph - N/A   Overcast
10:37 PM 32.0 °F 24.2 °F 28.4 °F 87% 30.28 in 10.0 mi NE 9.2 mph - N/A   Overcast
10:57 PM 32.0 °F 24.8 °F 26.6 °F 80% 30.28 in 10.0 mi ENE 8.1 mph - N/A   Overcast
11:17 PM 32.0 °F 23.0 °F 26.6 °F 80% 30.28 in 10.0 mi ENE 11.5 mph - N/A   Overcast
11:37 PM 32.0 °F 23.6 °F 26.6 °F 80% 30.29 in 10.0 mi East 10.4 mph - N/A   Overcast
11:57 PM 32.0 °F 23.6 °F 26.6 °F 80% 30.29 in 10.0 mi ENE 10.4 mph 17.3 mph N/A   Overcast